sensor_id;sensor_type;location;lat;lon;timestamp;pressure;altitude;pressure_sealevel;temperature;humidity
68871;BME280;55906;52.278;6.808;2023-02-23T00:02:05;101156.50;;;10.02;84.71
68871;BME280;55906;52.278;6.808;2023-02-23T00:04:33;101153.84;;;10.02;84.47
68871;BME280;55906;52.278;6.808;2023-02-23T00:07:00;101154.81;;;10.04;84.43
68871;BME280;55906;52.278;6.808;2023-02-23T00:09:27;101156.50;;;10.02;84.64
68871;BME280;55906;52.278;6.808;2023-02-23T00:12:00;101153.81;;;10.00;84.68
68871;BME280;55906;52.278;6.808;2023-02-23T00:14:33;101160.84;;;10.01;84.33
68871;BME280;55906;52.278;6.808;2023-02-23T00:16:59;101159.91;;;9.99;84.59
68871;BME280;55906;52.278;6.808;2023-02-23T00:19:27;101161.78;;;10.03;83.89
68871;BME280;55906;52.278;6.808;2023-02-23T00:21:57;101158.22;;;10.01;84.37
68871;BME280;55906;52.278;6.808;2023-02-23T00:24:24;101161.75;;;10.02;84.32
68871;BME280;55906;52.278;6.808;2023-02-23T00:26:51;101155.44;;;9.97;84.75
68871;BME280;55906;52.278;6.808;2023-02-23T00:29:19;101153.72;;;9.97;84.67
68871;BME280;55906;52.278;6.808;2023-02-23T00:31:47;101148.44;;;9.97;84.75
68871;BME280;55906;52.278;6.808;2023-02-23T00:34:15;101153.75;;;9.99;84.41
68871;BME280;55906;52.278;6.808;2023-02-23T00:36:48;101151.09;;;9.97;84.40
68871;BME280;55906;52.278;6.808;2023-02-23T00:39:15;101150.97;;;9.94;84.60
68871;BME280;55906;52.278;6.808;2023-02-23T00:41:46;101156.25;;;9.94;84.99
68871;BME280;55906;52.278;6.808;2023-02-23T00:44:13;101154.56;;;9.96;84.50
68871;BME280;55906;52.278;6.808;2023-02-23T00:46:41;101154.56;;;9.96;84.40
68871;BME280;55906;52.278;6.808;2023-02-23T00:49:10;101156.25;;;9.94;84.90
68871;BME280;55906;52.278;6.808;2023-02-23T00:51:37;101154.50;;;9.94;84.86
68871;BME280;55906;52.278;6.808;2023-02-23T00:54:05;101162.44;;;9.96;84.75
68871;BME280;55906;52.278;6.808;2023-02-23T00:56:32;101155.50;;;9.98;84.45
68871;BME280;55906;52.278;6.808;2023-02-23T00:58:59;101159.97;;;10.01;84.47
68871;BME280;55906;52.278;6.808;2023-02-23T01:01:26;101156.50;;;10.02;84.76
68871;BME280;55906;52.278;6.808;2023-02-23T01:03:52;101155.59;;;10.01;nan
68871;BME280;55906;52.278;6.808;2023-02-23T01:06:19;101150.44;;;10.04;84.26
68871;BME280;55906;52.278;6.808;2023-02-23T01:08:47;101149.53;;;10.04;84.76
68871;BME280;55906;52.278;6.808;2023-02-23T01:11:18;101157.47;;;10.05;84.29
68871;BME280;55906;52.278;6.808;2023-02-23T01:13:46;101154.81;;;10.04;84.82
68871;BME280;55906;52.278;6.808;2023-02-23T01:16:16;101158.38;;;10.06;84.70
68871;BME280;55906;52.278;6.808;2023-02-23T01:18:43;101156.63;;;10.06;84.89
68871;BME280;55906;52.278;6.808;2023-02-23T01:21:14;101151.38;;;10.06;84.48
68871;BME280;55906;52.278;6.808;2023-02-23T01:23:41;101158.47;;;10.09;84.26
68871;BME280;55906;52.278;6.808;2023-02-23T01:26:15;101154.84;;;10.05;84.50
68871;BME280;55906;52.278;6.808;2023-02-23T01:28:43;101164.53;;;10.06;84.58
68871;BME280;55906;52.278;6.808;2023-02-23T01:31:10;101153.91;;;10.03;84.63
68871;BME280;55906;52.278;6.808;2023-02-23T01:33:36;101164.41;;;10.03;84.79
68871;BME280;55906;52.278;6.808;2023-02-23T01:36:03;101159.16;;;10.03;84.44
68871;BME280;55906;52.278;6.808;2023-02-23T01:38:30;101154.66;;;9.99;84.33
68871;BME280;55906;52.278;6.808;2023-02-23T01:40:57;101155.50;;;9.98;84.98
68871;BME280;55906;52.278;6.808;2023-02-23T01:43:25;101155.50;;;9.98;84.54
68871;BME280;55906;52.278;6.808;2023-02-23T01:45:52;101158.13;;;9.98;84.70
68871;BME280;55906;52.278;6.808;2023-02-23T01:48:22;101154.59;;;9.98;84.74
68871;BME280;55906;52.278;6.808;2023-02-23T01:50:53;101157.97;;;9.93;85.00
68871;BME280;55906;52.278;6.808;2023-02-23T01:53:21;101169.38;;;9.94;84.92
68871;BME280;55906;52.278;6.808;2023-02-23T01:55:50;101155.41;;;9.95;85.16
68871;BME280;55906;52.278;6.808;2023-02-23T01:58:20;101151.03;;;9.95;85.02
68871;BME280;55906;52.278;6.808;2023-02-23T02:00:51;101158.88;;;9.94;84.96
68871;BME280;55906;52.278;6.808;2023-02-23T02:03:24;101156.25;;;9.94;85.01
68871;BME280;55906;52.278;6.808;2023-02-23T02:05:52;101157.09;;;9.93;84.81
68871;BME280;55906;52.278;6.808;2023-02-23T02:08:21;101152.72;;;9.93;85.02
68871;BME280;55906;52.278;6.808;2023-02-23T02:10:49;101154.44;;;9.93;84.91
68871;BME280;55906;52.278;6.808;2023-02-23T02:13:21;101157.13;;;9.94;85.22
68871;BME280;55906;52.278;6.808;2023-02-23T02:16:10;101158.88;;;9.94;84.64
68871;BME280;55906;52.278;6.808;2023-02-23T02:18:49;101157.09;;;9.93;85.07
68871;BME280;55906;52.278;6.808;2023-02-23T02:24:51;101155.25;;;9.90;85.05
68871;BME280;55906;52.278;6.808;2023-02-23T02:27:36;101150.78;;;9.88;84.84
68871;BME280;55906;52.278;6.808;2023-02-23T02:30:33;101155.28;;;9.92;84.85
68871;BME280;55906;52.278;6.808;2023-02-23T02:39:19;101147.31;;;9.89;84.82
68871;BME280;55906;52.278;6.808;2023-02-23T02:41:54;101151.72;;;9.90;84.84
68871;BME280;55906;52.278;6.808;2023-02-23T02:44:29;101149.09;;;9.90;84.93
68871;BME280;55906;52.278;6.808;2023-02-23T02:47:05;101151.66;;;9.88;84.88
68871;BME280;55906;52.278;6.808;2023-02-23T02:49:40;101148.25;;;9.91;84.72
68871;BME280;55906;52.278;6.808;2023-02-23T02:52:15;101141.22;;;9.90;84.97
68871;BME280;55906;52.278;6.808;2023-02-23T02:54:47;101146.47;;;9.90;84.67
68871;BME280;55906;52.278;6.808;2023-02-23T02:57:19;101143.84;;;9.90;84.93
68871;BME280;55906;52.278;6.808;2023-02-23T02:59:48;101142.00;;;9.87;84.65
68871;BME280;55906;52.278;6.808;2023-02-23T03:02:35;101138.53;;;9.88;84.89
68871;BME280;55906;52.278;6.808;2023-02-23T03:05:22;101133.19;;;9.85;84.57
68871;BME280;55906;52.278;6.808;2023-02-23T03:08:12;101139.28;;;9.84;84.75
68871;BME280;55906;52.278;6.808;2023-02-23T03:11:03;101143.53;;;9.81;84.57
68871;BME280;55906;52.278;6.808;2023-02-23T03:13:59;101147.84;;;9.79;84.55
68871;BME280;55906;52.278;6.808;2023-02-23T03:16:52;101147.00;;;9.80;84.38
68871;BME280;55906;52.278;6.808;2023-02-23T03:19:45;101143.50;;;9.79;84.50
68871;BME280;55906;52.278;6.808;2023-02-23T03:22:34;101141.75;;;9.80;84.46
68871;BME280;55906;52.278;6.808;2023-02-23T03:25:25;101142.59;;;9.79;84.41
68871;BME280;55906;52.278;6.808;2023-02-23T03:28:16;101148.69;;;9.78;84.35
68871;BME280;55906;52.278;6.808;2023-02-23T03:31:06;101147.00;;;9.80;84.35
68871;BME280;55906;52.278;6.808;2023-02-23T03:33:59;101151.41;;;9.81;84.21
68871;BME280;55906;52.278;6.808;2023-02-23T03:36:52;101147.94;;;9.82;84.38
68871;BME280;55906;52.278;6.808;2023-02-23T03:39:42;101154.09;;;9.82;84.21
68871;BME280;55906;52.278;6.808;2023-02-23T03:42:33;101157.56;;;9.81;83.98
68871;BME280;55906;52.278;6.808;2023-02-23T03:45:23;101155.00;;;9.83;84.03
68871;BME280;55906;52.278;6.808;2023-02-23T03:48:10;101161.19;;;9.85;84.16
68871;BME280;55906;52.278;6.808;2023-02-23T03:50:57;101154.00;;;9.79;84.33
68871;BME280;55906;52.278;6.808;2023-02-23T03:53:47;101164.56;;;9.81;84.24
68871;BME280;55906;52.278;6.808;2023-02-23T03:56:35;101158.34;;;9.79;84.39
68871;BME280;55906;52.278;6.808;2023-02-23T03:59:26;101158.19;;;9.74;84.55
68871;BME280;55906;52.278;6.808;2023-02-23T04:02:15;101161.72;;;9.75;84.35
68871;BME280;55906;52.278;6.808;2023-02-23T04:05:05;101163.50;;;9.76;84.35
68871;BME280;55906;52.278;6.808;2023-02-23T04:07:52;101152.91;;;9.73;84.41
68871;BME280;55906;52.278;6.808;2023-02-23T04:10:43;101163.50;;;9.76;84.46
68871;BME280;55906;52.278;6.808;2023-02-23T04:13:30;101173.88;;;9.71;84.63
68871;BME280;55906;52.278;6.808;2023-02-23T04:16:00;101159.72;;;9.68;84.68
68871;BME280;55906;52.278;6.808;2023-02-23T04:18:31;101164.19;;;9.70;84.40
68871;BME280;55906;52.278;6.808;2023-02-23T04:20:59;101169.44;;;9.70;84.40
68871;BME280;55906;52.278;6.808;2023-02-23T04:23:26;101166.88;;;9.72;84.23
68871;BME280;55906;52.278;6.808;2023-02-23T04:25:54;101185.25;;;9.72;84.62
68871;BME280;55906;52.278;6.808;2023-02-23T04:28:24;101183.59;;;9.74;84.46
68871;BME280;55906;52.278;6.808;2023-02-23T04:30:51;101179.13;;;9.71;84.74
68871;BME280;55906;52.278;6.808;2023-02-23T04:33:18;101180.00;;;9.72;84.46
68871;BME280;55906;52.278;6.808;2023-02-23T04:35:46;101178.28;;;9.72;84.61
68871;BME280;55906;52.278;6.808;2023-02-23T04:38:13;101194.03;;;9.72;84.78
68871;BME280;55906;52.278;6.808;2023-02-23T04:40:39;101187.09;;;9.74;84.73
68871;BME280;55906;52.278;6.808;2023-02-23T04:43:06;101183.53;;;9.72;84.50
68871;BME280;55906;52.278;6.808;2023-02-23T04:45:32;101189.56;;;9.70;84.46
68871;BME280;55906;52.278;6.808;2023-02-23T04:47:59;101192.19;;;9.70;84.51
68871;BME280;55906;52.278;6.808;2023-02-23T04:50:26;101191.25;;;9.68;84.57
68871;BME280;55906;52.278;6.808;2023-02-23T04:52:54;101194.66;;;9.65;84.76
68871;BME280;55906;52.278;6.808;2023-02-23T04:55:22;101185.91;;;9.65;84.73
68871;BME280;55906;52.278;6.808;2023-02-23T04:57:50;101187.53;;;9.61;85.00
68871;BME280;55906;52.278;6.808;2023-02-23T05:00:17;101195.44;;;9.62;84.97
68871;BME280;55906;52.278;6.808;2023-02-23T05:02:44;101186.69;;;9.62;85.15
68871;BME280;55906;52.278;6.808;2023-02-23T05:05:11;101189.38;;;9.63;84.76
68871;BME280;55906;52.278;6.808;2023-02-23T05:07:38;101186.72;;;9.63;84.55
68871;BME280;55906;52.278;6.808;2023-02-23T05:10:06;101189.47;;;9.67;85.01
68871;BME280;55906;52.278;6.808;2023-02-23T05:12:33;101191.16;;;9.65;84.84
68871;BME280;55906;52.278;6.808;2023-02-23T05:15:00;101191.03;;;9.61;84.91
68871;BME280;55906;52.278;6.808;2023-02-23T05:17:26;101196.97;;;9.56;85.28
68871;BME280;55906;52.278;6.808;2023-02-23T05:19:53;101196.09;;;9.55;85.28
68871;BME280;55906;52.278;6.808;2023-02-23T05:22:20;101195.25;;;9.56;85.21
68871;BME280;55906;52.278;6.808;2023-02-23T05:24:47;101192.66;;;9.58;85.04
68871;BME280;55906;52.278;6.808;2023-02-23T05:27:15;101201.50;;;9.60;84.95
68871;BME280;55906;52.278;6.808;2023-02-23T05:29:42;101195.41;;;9.61;84.96
68871;BME280;55906;52.278;6.808;2023-02-23T05:32:09;101197.19;;;9.62;84.94
68871;BME280;55906;52.278;6.808;2023-02-23T05:34:35;101200.72;;;9.62;85.20
68871;BME280;55906;52.278;6.808;2023-02-23T05:37:03;101200.75;;;9.64;84.92
68871;BME280;55906;52.278;6.808;2023-02-23T05:39:30;101207.81;;;9.65;84.82
68871;BME280;55906;52.278;6.808;2023-02-23T05:41:56;101201.56;;;9.61;85.03
68871;BME280;55906;52.278;6.808;2023-02-23T05:44:25;101205.91;;;9.61;85.15
68871;BME280;55906;52.278;6.808;2023-02-23T05:46:51;101205.13;;;9.63;84.69
68871;BME280;55906;52.278;6.808;2023-02-23T05:49:18;101212.00;;;9.60;85.16
68871;BME280;55906;52.278;6.808;2023-02-23T05:51:45;101205.91;;;9.61;84.96
68871;BME280;55906;52.278;6.808;2023-02-23T05:54:11;101208.53;;;9.61;84.87
68871;BME280;55906;52.278;6.808;2023-02-23T05:56:38;101204.91;;;9.57;84.91
68871;BME280;55906;52.278;6.808;2023-02-23T05:59:05;101205.53;;;9.50;84.83
68871;BME280;55906;52.278;6.808;2023-02-23T06:01:33;101212.56;;;9.51;84.76
68871;BME280;55906;52.278;6.808;2023-02-23T06:04:00;101211.56;;;9.48;84.92
68871;BME280;55906;52.278;6.808;2023-02-23T06:06:26;101216.81;;;9.48;84.73
68871;BME280;55906;52.278;6.808;2023-02-23T06:08:53;101222.03;;;9.46;84.54
68871;BME280;55906;52.278;6.808;2023-02-23T06:11:20;101222.13;;;9.49;84.49
68871;BME280;55906;52.278;6.808;2023-02-23T06:13:47;101223.81;;;9.47;84.43
68871;BME280;55906;52.278;6.808;2023-02-23T06:16:14;101227.28;;;9.46;84.75
68871;BME280;55906;52.278;6.808;2023-02-23T06:18:42;101226.38;;;9.46;84.38
68871;BME280;55906;52.278;6.808;2023-02-23T06:21:08;101228.00;;;9.42;84.64
68871;BME280;55906;52.278;6.808;2023-02-23T06:23:35;101222.63;;;9.39;84.54
68871;BME280;55906;52.278;6.808;2023-02-23T06:26:02;101226.09;;;9.38;84.75
68871;BME280;55906;52.278;6.808;2023-02-23T06:28:29;101233.09;;;9.38;84.51
68871;BME280;55906;52.278;6.808;2023-02-23T06:30:55;101232.19;;;9.37;84.46
68871;BME280;55906;52.278;6.808;2023-02-23T06:33:25;101227.06;;;9.40;nan
68871;BME280;55906;52.278;6.808;2023-02-23T06:35:56;101230.56;;;9.41;84.46
68871;BME280;55906;52.278;6.808;2023-02-23T06:38:23;101231.41;;;9.40;84.42
68871;BME280;55906;52.278;6.808;2023-02-23T06:40:49;101236.72;;;9.41;84.55
68871;BME280;55906;52.278;6.808;2023-02-23T06:43:16;101239.34;;;9.41;84.49
68871;BME280;55906;52.278;6.808;2023-02-23T06:45:44;101236.78;;;9.43;84.56
68871;BME280;55906;52.278;6.808;2023-02-23T06:48:11;101239.34;;;9.41;84.50
68871;BME280;55906;52.278;6.808;2023-02-23T06:50:38;101250.84;;;9.45;84.47
68871;BME280;55906;52.278;6.808;2023-02-23T06:53:05;101251.63;;;9.42;84.42
68871;BME280;55906;52.278;6.808;2023-02-23T06:55:32;101248.94;;;9.41;84.61
68871;BME280;55906;52.278;6.808;2023-02-23T06:57:59;101250.78;;;9.43;84.70
68871;BME280;55906;52.278;6.808;2023-02-23T07:00:26;101251.53;;;9.39;84.59
68871;BME280;55906;52.278;6.808;2023-02-23T07:02:53;101254.16;;;9.39;84.79
68871;BME280;55906;52.278;6.808;2023-02-23T07:05:22;101261.19;;;9.40;85.09
68871;BME280;55906;52.278;6.808;2023-02-23T07:07:48;101264.66;;;9.39;84.77
68871;BME280;55906;52.278;6.808;2023-02-23T07:10:18;101266.28;;;9.36;85.52
68871;BME280;55906;52.278;6.808;2023-02-23T07:12:44;101269.00;;;9.39;85.24
68871;BME280;55906;52.278;6.808;2023-02-23T07:15:11;101273.38;;;9.38;85.42
68871;BME280;55906;52.278;6.808;2023-02-23T07:17:42;101277.56;;;9.33;85.57
68871;BME280;55906;52.278;6.808;2023-02-23T07:20:10;101277.56;;;9.33;85.68
68871;BME280;55906;52.278;6.808;2023-02-23T07:22:37;101279.88;;;9.25;86.30
68871;BME280;55906;52.278;6.808;2023-02-23T07:25:04;101293.72;;;9.21;86.81
68871;BME280;55906;52.278;6.808;2023-02-23T07:27:33;101300.72;;;9.21;86.95
68871;BME280;55906;52.278;6.808;2023-02-23T07:29:59;101291.88;;;9.19;86.60
68871;BME280;55906;52.278;6.808;2023-02-23T07:32:27;101296.25;;;9.18;86.95
68871;BME280;55906;52.278;6.808;2023-02-23T07:34:54;101296.19;;;9.17;86.92
68871;BME280;55906;52.278;6.808;2023-02-23T07:37:21;101305.00;;;9.19;86.90
68871;BME280;55906;52.278;6.808;2023-02-23T07:39:47;101301.66;;;9.23;86.93
68871;BME280;55906;52.278;6.808;2023-02-23T07:42:14;101299.94;;;9.23;87.25
68871;BME280;55906;52.278;6.808;2023-02-23T07:44:42;101302.50;;;9.22;87.04
68871;BME280;55906;52.278;6.808;2023-02-23T07:47:10;101306.03;;;9.22;87.15
68871;BME280;55906;52.278;6.808;2023-02-23T07:49:37;101307.88;;;9.25;87.10
68871;BME280;55906;52.278;6.808;2023-02-23T07:52:04;101313.19;;;9.26;86.97
68871;BME280;55906;52.278;6.808;2023-02-23T07:54:30;101311.44;;;9.27;87.08
68871;BME280;55906;52.278;6.808;2023-02-23T07:56:57;101315.81;;;9.26;87.07
68871;BME280;55906;52.278;6.808;2023-02-23T07:59:24;101316.81;;;9.30;86.80
68871;BME280;55906;52.278;6.808;2023-02-23T08:01:52;101320.44;;;9.34;86.82
68871;BME280;55906;52.278;6.808;2023-02-23T08:04:19;101326.66;;;9.36;86.84
68871;BME280;55906;52.278;6.808;2023-02-23T08:06:46;101326.72;;;9.37;87.40
68871;BME280;55906;52.278;6.808;2023-02-23T08:09:13;101325.94;;;9.40;86.87
68871;BME280;55906;52.278;6.808;2023-02-23T08:11:39;101329.56;;;9.43;86.68
68871;BME280;55906;52.278;6.808;2023-02-23T08:14:06;101330.47;;;9.44;86.47
68871;BME280;55906;52.278;6.808;2023-02-23T08:16:34;101327.06;;;9.46;86.56
68871;BME280;55906;52.278;6.808;2023-02-23T08:19:02;101328.84;;;9.47;86.71
68871;BME280;55906;52.278;6.808;2023-02-23T08:21:29;101337.69;;;9.49;86.44
68871;BME280;55906;52.278;6.808;2023-02-23T08:23:56;101340.41;;;9.52;86.58
68871;BME280;55906;52.278;6.808;2023-02-23T08:26:23;101342.16;;;9.52;86.58
68871;BME280;55906;52.278;6.808;2023-02-23T08:28:50;101342.25;;;9.55;86.71
68871;BME280;55906;52.278;6.808;2023-02-23T08:31:17;101341.31;;;9.53;86.47
68871;BME280;55906;52.278;6.808;2023-02-23T08:33:46;101340.38;;;9.51;86.23
68871;BME280;55906;52.278;6.808;2023-02-23T08:36:14;101339.34;;;9.47;86.40
68871;BME280;55906;52.278;6.808;2023-02-23T08:38:41;101341.19;;;9.50;86.56
68871;BME280;55906;52.278;6.808;2023-02-23T08:41:07;101344.72;;;9.50;86.51
68871;BME280;55906;52.278;6.808;2023-02-23T08:43:34;101346.63;;;9.54;86.29
68871;BME280;55906;52.278;6.808;2023-02-23T08:46:01;101354.69;;;9.59;86.13
68871;BME280;55906;52.278;6.808;2023-02-23T08:48:28;101353.06;;;9.62;86.20
68871;BME280;55906;52.278;6.808;2023-02-23T08:50:55;101342.38;;;9.58;86.03
68871;BME280;55906;52.278;6.808;2023-02-23T08:53:23;101361.06;;;9.66;85.89
68871;BME280;55906;52.278;6.808;2023-02-23T08:55:54;101362.06;;;9.69;85.88
68871;BME280;55906;52.278;6.808;2023-02-23T08:58:21;101361.16;;;9.69;85.63
68871;BME280;55906;52.278;6.808;2023-02-23T09:00:48;101362.16;;;9.72;85.37
68871;BME280;55906;52.278;6.808;2023-02-23T09:03:15;101361.38;;;9.75;85.76
68871;BME280;55906;52.278;6.808;2023-02-23T09:05:41;101356.25;;;9.78;85.55
68871;BME280;55906;52.278;6.808;2023-02-23T09:08:08;101364.13;;;9.78;85.74
68871;BME280;55906;52.278;6.808;2023-02-23T09:10:37;101359.81;;;9.80;85.14
68871;BME280;55906;52.278;6.808;2023-02-23T09:13:04;101360.59;;;9.77;85.57
68871;BME280;55906;52.278;6.808;2023-02-23T09:15:31;101376.16;;;9.71;84.63
68871;BME280;55906;52.278;6.808;2023-02-23T09:17:59;101373.69;;;9.76;84.80
68871;BME280;55906;52.278;6.808;2023-02-23T09:20:26;101380.63;;;9.74;84.88
68871;BME280;55906;52.278;6.808;2023-02-23T09:22:52;101378.94;;;9.76;84.79
68871;BME280;55906;52.278;6.808;2023-02-23T09:25:20;101376.31;;;9.76;84.82
68871;BME280;55906;52.278;6.808;2023-02-23T09:27:49;101377.28;;;9.78;84.80
68871;BME280;55906;52.278;6.808;2023-02-23T09:30:17;101378.28;;;9.81;84.73
68871;BME280;55906;52.278;6.808;2023-02-23T09:32:45;101384.19;;;9.76;84.00
68871;BME280;55906;52.278;6.808;2023-02-23T09:35:12;101376.44;;;9.79;84.18
68871;BME280;55906;52.278;6.808;2023-02-23T09:37:42;101385.88;;;9.74;85.14
68871;BME280;55906;52.278;6.808;2023-02-23T09:40:14;101389.75;;;9.83;84.84
68871;BME280;55906;52.278;6.808;2023-02-23T09:42:45;101394.94;;;9.82;84.39
68871;BME280;55906;52.278;6.808;2023-02-23T09:45:34;101390.69;;;9.85;84.35
68871;BME280;55906;52.278;6.808;2023-02-23T09:48:12;101395.38;;;9.94;84.08
68871;BME280;55906;52.278;6.808;2023-02-23T09:50:43;101391.97;;;9.97;84.22
68871;BME280;55906;52.278;6.808;2023-02-23T09:53:20;101395.63;;;10.00;83.98
68871;BME280;55906;52.278;6.808;2023-02-23T09:55:50;101390.41;;;10.02;83.97
68871;BME280;55906;52.278;6.808;2023-02-23T09:58:22;101391.41;;;10.05;83.61
68871;BME280;55906;52.278;6.808;2023-02-23T10:01:03;101392.31;;;10.06;83.27
68871;BME280;55906;52.278;6.808;2023-02-23T10:03:36;101394.28;;;10.11;83.27
68871;BME280;55906;52.278;6.808;2023-02-23T10:06:07;101394.38;;;10.14;83.19
68871;BME280;55906;52.278;6.808;2023-02-23T10:08:47;101390.06;;;10.16;83.45
68871;BME280;55906;52.278;6.808;2023-02-23T10:11:23;101395.09;;;10.10;83.87
68871;BME280;55906;52.278;6.808;2023-02-23T10:14:01;101389.19;;;10.16;83.47
68871;BME280;55906;52.278;6.808;2023-02-23T10:16:41;101389.47;;;10.23;83.42
68871;BME280;55906;52.278;6.808;2023-02-23T10:19:13;101387.81;;;10.25;83.13
68871;BME280;55906;52.278;6.808;2023-02-23T10:21:49;101396.16;;;10.39;82.92
68871;BME280;55906;52.278;6.808;2023-02-23T10:24:20;101394.53;;;10.41;82.51
68871;BME280;55906;52.278;6.808;2023-02-23T10:26:51;101391.69;;;10.37;81.89
68871;BME280;55906;52.278;6.808;2023-02-23T10:29:22;101394.56;;;10.43;81.20
68871;BME280;55906;52.278;6.808;2023-02-23T10:31:56;101392.47;;;10.58;80.88
68871;BME280;55906;52.278;6.808;2023-02-23T10:34:26;101392.69;;;10.64;81.44
68871;BME280;55906;52.278;6.808;2023-02-23T10:36:57;101403.41;;;10.70;81.01
68871;BME280;55906;52.278;6.808;2023-02-23T10:39:26;101396.56;;;10.75;80.96
68871;BME280;55906;52.278;6.808;2023-02-23T10:41:55;101394.56;;;10.68;80.62
68871;BME280;55906;52.278;6.808;2023-02-23T10:44:24;101402.25;;;10.62;79.50
68871;BME280;55906;52.278;6.808;2023-02-23T10:46:56;101404.03;;;10.63;79.88
68871;BME280;55906;52.278;6.808;2023-02-23T10:49:27;101403.84;;;10.57;80.10
68871;BME280;55906;52.278;6.808;2023-02-23T10:51:55;101403.78;;;10.55;79.97
68871;BME280;55906;52.278;6.808;2023-02-23T10:54:35;101402.00;;;10.54;80.12
68871;BME280;55906;52.278;6.808;2023-02-23T10:57:03;101404.78;;;10.59;79.65
68871;BME280;55906;52.278;6.808;2023-02-23T10:59:31;101403.94;;;10.60;79.60
68871;BME280;55906;52.278;6.808;2023-02-23T11:02:14;101415.16;;;10.54;78.94
68871;BME280;55906;52.278;6.808;2023-02-23T11:04:50;101422.66;;;10.44;80.19
68871;BME280;55906;52.278;6.808;2023-02-23T11:07:21;101423.63;;;10.46;80.52
68871;BME280;55906;52.278;6.808;2023-02-23T11:09:48;101428.94;;;10.47;80.77
68871;BME280;55906;52.278;6.808;2023-02-23T11:12:18;101424.28;;;10.40;80.87
68871;BME280;55906;52.278;6.808;2023-02-23T11:14:46;101427.47;;;10.32;80.62
68871;BME280;55906;52.278;6.808;2023-02-23T11:17:26;101429.34;;;10.36;80.16
68871;BME280;55906;52.278;6.808;2023-02-23T11:19:57;101424.16;;;10.37;80.55
68871;BME280;55906;52.278;6.808;2023-02-23T11:22:30;101427.69;;;10.38;80.32
68871;BME280;55906;52.278;6.808;2023-02-23T11:24:58;101417.91;;;10.34;80.52
68871;BME280;55906;52.278;6.808;2023-02-23T11:27:26;101424.50;;;10.22;81.07
68871;BME280;55906;52.278;6.808;2023-02-23T11:29:55;101415.00;;;10.26;80.43
68871;BME280;55906;52.278;6.808;2023-02-23T11:32:27;101420.47;;;10.32;80.65
68871;BME280;55906;52.278;6.808;2023-02-23T11:35:23;101416.78;;;10.27;81.11
68871;BME280;55906;52.278;6.808;2023-02-23T11:37:52;101419.56;;;10.32;80.57
68871;BME280;55906;52.278;6.808;2023-02-23T11:40:22;101413.53;;;10.34;80.60
68871;BME280;55906;52.278;6.808;2023-02-23T11:42:51;101415.25;;;10.34;80.71
68871;BME280;55906;52.278;6.808;2023-02-23T11:45:20;101417.72;;;10.29;80.49
68871;BME280;55906;52.278;6.808;2023-02-23T11:47:50;101418.56;;;10.28;80.44
68871;BME280;55906;52.278;6.808;2023-02-23T11:50:27;101422.09;;;10.29;80.27
68871;BME280;55906;52.278;6.808;2023-02-23T11:53:01;101421.03;;;10.23;79.95
68871;BME280;55906;52.278;6.808;2023-02-23T11:55:30;101425.19;;;10.18;79.63
68871;BME280;55906;52.278;6.808;2023-02-23T11:58:20;101428.72;;;10.19;79.90
68871;BME280;55906;52.278;6.808;2023-02-23T12:00:54;101426.47;;;10.06;80.29
68871;BME280;55906;52.278;6.808;2023-02-23T12:03:24;101418.88;;;10.13;80.76
68871;BME280;55906;52.278;6.808;2023-02-23T12:05:53;101424.25;;;10.16;80.31
68871;BME280;55906;52.278;6.808;2023-02-23T12:08:31;101423.34;;;10.16;79.87
68871;BME280;55906;52.278;6.808;2023-02-23T12:11:02;101418.03;;;10.14;80.12
68871;BME280;55906;52.278;6.808;2023-02-23T12:13:35;101412.06;;;10.18;79.70
68871;BME280;55906;52.278;6.808;2023-02-23T12:16:09;101413.19;;;10.25;79.83
68871;BME280;55906;52.278;6.808;2023-02-23T12:18:45;101406.31;;;10.29;79.54
68871;BME280;55906;52.278;6.808;2023-02-23T12:21:24;101407.22;;;10.29;78.75
68871;BME280;55906;52.278;6.808;2023-02-23T12:24:02;101411.38;;;10.46;79.28
68871;BME280;55906;52.278;6.808;2023-02-23T12:26:33;101404.56;;;10.53;78.69
68871;BME280;55906;52.278;6.808;2023-02-23T12:29:12;101410.38;;;10.68;78.38
68871;BME280;55906;52.278;6.808;2023-02-23T12:31:46;101408.78;;;10.73;79.15
68871;BME280;55906;52.278;6.808;2023-02-23T12:34:21;101409.03;;;10.81;77.87
68871;BME280;55906;52.278;6.808;2023-02-23T12:36:54;101418.97;;;10.89;77.87
68871;BME280;55906;52.278;6.808;2023-02-23T12:39:26;101419.72;;;10.85;77.92
68871;BME280;55906;52.278;6.808;2023-02-23T12:42:01;101422.50;;;10.90;77.90
68871;BME280;55906;52.278;6.808;2023-02-23T12:44:34;101424.09;;;10.85;77.81
68871;BME280;55906;52.278;6.808;2023-02-23T12:47:08;101422.00;;;10.75;77.74
68871;BME280;55906;52.278;6.808;2023-02-23T12:49:43;101420.41;;;10.80;78.26
68871;BME280;55906;52.278;6.808;2023-02-23T12:52:15;101430.34;;;10.63;77.21
68871;BME280;55906;52.278;6.808;2023-02-23T12:54:43;101430.34;;;10.63;77.66
68871;BME280;55906;52.278;6.808;2023-02-23T12:57:17;101426.13;;;10.43;77.93
68871;BME280;55906;52.278;6.808;2023-02-23T13:00:16;101431.81;;;10.55;77.75
68871;BME280;55906;52.278;6.808;2023-02-23T13:02:51;101428.19;;;10.51;78.12
68871;BME280;55906;52.278;6.808;2023-02-23T13:05:26;101422.63;;;10.42;78.31
68871;BME280;55906;52.278;6.808;2023-02-23T13:08:03;101420.47;;;10.32;77.87
68871;BME280;55906;52.278;6.808;2023-02-23T13:10:41;101418.47;;;10.25;78.07
68871;BME280;55906;52.278;6.808;2023-02-23T13:13:20;101428.09;;;10.24;78.50
68871;BME280;55906;52.278;6.808;2023-02-23T13:15:54;101428.09;;;10.24;78.74
68871;BME280;55906;52.278;6.808;2023-02-23T13:18:28;101428.66;;;10.17;79.10
68871;BME280;55906;52.278;6.808;2023-02-23T13:21:03;101425.09;;;10.15;79.05
68871;BME280;55906;52.278;6.808;2023-02-23T13:23:33;101429.16;;;10.07;79.11
68871;BME280;55906;52.278;6.808;2023-02-23T13:26:08;101429.06;;;10.04;79.56
68871;BME280;55906;52.278;6.808;2023-02-23T13:28:46;101427.16;;;10.00;79.82
68871;BME280;55906;52.278;6.808;2023-02-23T13:31:25;101421.00;;;10.00;79.98